sensor_id;sensor_type;location;lat;lon;timestamp;P1;durP1;ratioP1;P2;durP2;ratioP2
18693;SDS011;9477;51.414;10.362;2023-04-03T00:00:45;5.43;;;1.60;;
18693;SDS011;9477;51.414;10.362;2023-04-03T00:02:50;4.13;;;1.40;;
18693;SDS011;9477;51.414;10.362;2023-04-03T00:04:53;5.37;;;1.50;;
18693;SDS011;9477;51.414;10.362;2023-04-03T00:06:56;3.70;;;1.30;;
18693;SDS011;9477;51.414;10.362;2023-04-03T00:08:59;7.80;;;1.73;;
18693;SDS011;9477;51.414;10.362;2023-04-03T00:11:02;3.97;;;1.57;;
18693;SDS011;9477;51.414;10.362;2023-04-03T00:13:06;4.50;;;1.40;;
18693;SDS011;9477;51.414;10.362;2023-04-03T00:15:11;5.80;;;1.40;;
18693;SDS011;9477;51.414;10.362;2023-04-03T00:17:14;8.27;;;1.80;;
18693;SDS011;9477;51.414;10.362;2023-04-03T00:19:17;5.57;;;1.60;;
18693;SDS011;9477;51.414;10.362;2023-04-03T00:21:20;4.57;;;1.67;;
18693;SDS011;9477;51.414;10.362;2023-04-03T00:23:23;4.70;;;1.80;;
18693;SDS011;9477;51.414;10.362;2023-04-03T00:25:26;6.07;;;1.60;;
18693;SDS011;9477;51.414;10.362;2023-04-03T00:27:29;5.17;;;1.90;;
18693;SDS011;9477;51.414;10.362;2023-04-03T00:29:32;5.57;;;1.70;;
18693;SDS011;9477;51.414;10.362;2023-04-03T00:31:37;6.70;;;1.80;;
18693;SDS011;9477;51.414;10.362;2023-04-03T00:33:40;4.93;;;1.63;;
18693;SDS011;9477;51.414;10.362;2023-04-03T00:35:43;5.13;;;1.67;;
18693;SDS011;9477;51.414;10.362;2023-04-03T00:37:46;4.10;;;1.70;;
18693;SDS011;9477;51.414;10.362;2023-04-03T00:39:49;3.17;;;1.50;;
18693;SDS011;9477;51.414;10.362;2023-04-03T00:41:52;8.23;;;1.80;;
18693;SDS011;9477;51.414;10.362;2023-04-03T00:43:55;6.27;;;1.97;;
18693;SDS011;9477;51.414;10.362;2023-04-03T00:45:58;5.87;;;1.67;;
18693;SDS011;9477;51.414;10.362;2023-04-03T00:48:04;4.70;;;1.50;;
18693;SDS011;9477;51.414;10.362;2023-04-03T00:50:09;4.07;;;1.80;;
18693;SDS011;9477;51.414;10.362;2023-04-03T00:52:13;5.00;;;1.80;;
18693;SDS011;9477;51.414;10.362;2023-04-03T00:54:18;5.07;;;2.10;;
18693;SDS011;9477;51.414;10.362;2023-04-03T00:56:21;4.37;;;1.60;;
18693;SDS011;9477;51.414;10.362;2023-04-03T00:58:28;5.40;;;1.60;;
18693;SDS011;9477;51.414;10.362;2023-04-03T01:00:35;4.07;;;1.90;;
18693;SDS011;9477;51.414;10.362;2023-04-03T01:02:40;7.43;;;1.80;;
18693;SDS011;9477;51.414;10.362;2023-04-03T01:04:45;4.20;;;1.70;;
18693;SDS011;9477;51.414;10.362;2023-04-03T01:06:48;6.03;;;1.70;;
18693;SDS011;9477;51.414;10.362;2023-04-03T01:08:51;4.70;;;1.63;;
18693;SDS011;9477;51.414;10.362;2023-04-03T01:10:55;6.93;;;1.83;;
18693;SDS011;9477;51.414;10.362;2023-04-03T01:12:58;8.07;;;2.10;;
18693;SDS011;9477;51.414;10.362;2023-04-03T01:15:03;7.40;;;2.00;;
18693;SDS011;9477;51.414;10.362;2023-04-03T01:17:23;5.43;;;1.70;;
18693;SDS011;9477;51.414;10.362;2023-04-03T01:19:29;7.33;;;1.70;;
18693;SDS011;9477;51.414;10.362;2023-04-03T01:24:12;7.03;;;1.70;;
18693;SDS011;9477;51.414;10.362;2023-04-03T01:26:24;2.50;;;1.70;;
18693;SDS011;9477;51.414;10.362;2023-04-03T01:28:29;7.40;;;2.20;;
18693;SDS011;9477;51.414;10.362;2023-04-03T01:30:34;6.73;;;1.73;;
18693;SDS011;9477;51.414;10.362;2023-04-03T01:32:42;3.87;;;1.43;;
18693;SDS011;9477;51.414;10.362;2023-04-03T01:34:44;8.63;;;2.20;;
18693;SDS011;9477;51.414;10.362;2023-04-03T01:36:47;7.20;;;2.20;;
18693;SDS011;9477;51.414;10.362;2023-04-03T01:38:52;7.37;;;2.07;;
18693;SDS011;9477;51.414;10.362;2023-04-03T01:40:56;6.60;;;2.20;;
18693;SDS011;9477;51.414;10.362;2023-04-03T01:42:59;4.80;;;2.10;;
18693;SDS011;9477;51.414;10.362;2023-04-03T01:45:02;6.90;;;1.80;;
18693;SDS011;9477;51.414;10.362;2023-04-03T01:47:05;6.63;;;1.70;;
18693;SDS011;9477;51.414;10.362;2023-04-03T01:49:10;7.30;;;1.80;;
18693;SDS011;9477;51.414;10.362;2023-04-03T01:51:13;7.23;;;2.00;;
18693;SDS011;9477;51.414;10.362;2023-04-03T01:53:17;7.27;;;1.93;;
18693;SDS011;9477;51.414;10.362;2023-04-03T01:55:20;6.10;;;1.60;;
18693;SDS011;9477;51.414;10.362;2023-04-03T01:57:22;6.30;;;2.10;;
18693;SDS011;9477;51.414;10.362;2023-04-03T01:59:25;3.87;;;1.53;;
18693;SDS011;9477;51.414;10.362;2023-04-03T02:01:29;4.57;;;1.83;;
18693;SDS011;9477;51.414;10.362;2023-04-03T02:03:32;5.23;;;1.90;;
18693;SDS011;9477;51.414;10.362;2023-04-03T02:05:37;6.70;;;1.87;;
18693;SDS011;9477;51.414;10.362;2023-04-03T02:07:40;7.77;;;2.00;;
18693;SDS011;9477;51.414;10.362;2023-04-03T02:09:43;5.53;;;1.73;;
18693;SDS011;9477;51.414;10.362;2023-04-03T02:11:46;7.53;;;2.43;;
18693;SDS011;9477;51.414;10.362;2023-04-03T02:13:49;8.53;;;2.50;;
18693;SDS011;9477;51.414;10.362;2023-04-03T02:15:52;15.40;;;5.13;;
18693;SDS011;9477;51.414;10.362;2023-04-03T02:17:54;18.93;;;5.57;;
18693;SDS011;9477;51.414;10.362;2023-04-03T02:19:57;9.67;;;3.37;;
18693;SDS011;9477;51.414;10.362;2023-04-03T02:22:02;9.70;;;3.70;;
18693;SDS011;9477;51.414;10.362;2023-04-03T02:24:05;9.47;;;3.83;;
18693;SDS011;9477;51.414;10.362;2023-04-03T02:26:09;9.30;;;3.23;;
18693;SDS011;9477;51.414;10.362;2023-04-03T02:28:13;7.70;;;2.63;;
18693;SDS011;9477;51.414;10.362;2023-04-03T02:30:16;5.33;;;2.07;;
18693;SDS011;9477;51.414;10.362;2023-04-03T02:32:19;6.43;;;2.27;;
18693;SDS011;9477;51.414;10.362;2023-04-03T02:34:22;8.47;;;2.50;;
18693;SDS011;9477;51.414;10.362;2023-04-03T02:36:25;7.80;;;2.53;;
18693;SDS011;9477;51.414;10.362;2023-04-03T02:38:29;3.33;;;1.57;;
18693;SDS011;9477;51.414;10.362;2023-04-03T02:40:32;6.90;;;1.83;;
18693;SDS011;9477;51.414;10.362;2023-04-03T02:42:36;4.77;;;2.00;;
18693;SDS011;9477;51.414;10.362;2023-04-03T02:44:39;7.20;;;1.70;;
18693;SDS011;9477;51.414;10.362;2023-04-03T02:46:42;6.40;;;2.07;;
18693;SDS011;9477;51.414;10.362;2023-04-03T02:48:45;4.60;;;1.90;;
18693;SDS011;9477;51.414;10.362;2023-04-03T02:50:48;7.33;;;2.10;;
18693;SDS011;9477;51.414;10.362;2023-04-03T02:52:51;4.43;;;2.03;;
18693;SDS011;9477;51.414;10.362;2023-04-03T02:54:55;7.77;;;2.07;;
18693;SDS011;9477;51.414;10.362;2023-04-03T02:56:58;6.27;;;1.90;;
18693;SDS011;9477;51.414;10.362;2023-04-03T02:59:01;5.13;;;1.80;;
18693;SDS011;9477;51.414;10.362;2023-04-03T03:01:04;4.80;;;1.80;;
18693;SDS011;9477;51.414;10.362;2023-04-03T03:03:06;4.63;;;2.10;;
18693;SDS011;9477;51.414;10.362;2023-04-03T03:05:10;3.47;;;1.73;;
18693;SDS011;9477;51.414;10.362;2023-04-03T03:07:13;3.87;;;1.87;;
18693;SDS011;9477;51.414;10.362;2023-04-03T03:09:16;4.07;;;1.60;;
18693;SDS011;9477;51.414;10.362;2023-04-03T03:11:20;6.47;;;1.90;;
18693;SDS011;9477;51.414;10.362;2023-04-03T03:13:23;4.30;;;1.80;;
18693;SDS011;9477;51.414;10.362;2023-04-03T03:15:26;7.40;;;2.10;;
18693;SDS011;9477;51.414;10.362;2023-04-03T03:17:29;7.33;;;2.07;;
18693;SDS011;9477;51.414;10.362;2023-04-03T03:19:32;8.97;;;2.00;;
18693;SDS011;9477;51.414;10.362;2023-04-03T03:21:36;5.03;;;1.90;;
18693;SDS011;9477;51.414;10.362;2023-04-03T03:23:38;6.60;;;2.00;;
18693;SDS011;9477;51.414;10.362;2023-04-03T03:25:41;6.07;;;2.13;;
18693;SDS011;9477;51.414;10.362;2023-04-03T03:27:46;4.33;;;1.63;;
18693;SDS011;9477;51.414;10.362;2023-04-03T03:29:48;7.00;;;1.87;;
18693;SDS011;9477;51.414;10.362;2023-04-03T03:31:51;4.23;;;1.67;;
18693;SDS011;9477;51.414;10.362;2023-04-03T03:33:54;13.67;;;2.43;;
18693;SDS011;9477;51.414;10.362;2023-04-03T03:35:57;3.20;;;1.70;;
18693;SDS011;9477;51.414;10.362;2023-04-03T03:38:00;5.87;;;1.83;;
18693;SDS011;9477;51.414;10.362;2023-04-03T03:40:03;6.90;;;2.10;;
18693;SDS011;9477;51.414;10.362;2023-04-03T03:42:07;7.17;;;2.23;;
18693;SDS011;9477;51.414;10.362;2023-04-03T03:44:11;8.43;;;2.20;;
18693;SDS011;9477;51.414;10.362;2023-04-03T03:46:15;6.50;;;2.03;;
18693;SDS011;9477;51.414;10.362;2023-04-03T03:48:18;4.13;;;1.60;;
18693;SDS011;9477;51.414;10.362;2023-04-03T03:50:22;7.03;;;2.20;;
18693;SDS011;9477;51.414;10.362;2023-04-03T03:52:25;7.67;;;1.93;;
18693;SDS011;9477;51.414;10.362;2023-04-03T03:54:28;8.60;;;1.70;;
18693;SDS011;9477;51.414;10.362;2023-04-03T03:56:31;7.50;;;2.37;;
18693;SDS011;9477;51.414;10.362;2023-04-03T03:58:34;5.83;;;1.87;;
18693;SDS011;9477;51.414;10.362;2023-04-03T04:00:39;3.27;;;2.00;;
18693;SDS011;9477;51.414;10.362;2023-04-03T04:02:42;9.63;;;2.10;;
18693;SDS011;9477;51.414;10.362;2023-04-03T04:04:45;5.70;;;2.00;;
18693;SDS011;9477;51.414;10.362;2023-04-03T04:06:48;6.63;;;1.83;;
18693;SDS011;9477;51.414;10.362;2023-04-03T04:08:51;3.73;;;2.07;;
18693;SDS011;9477;51.414;10.362;2023-04-03T04:10:55;7.33;;;2.10;;
18693;SDS011;9477;51.414;10.362;2023-04-03T04:12:57;5.97;;;2.30;;
18693;SDS011;9477;51.414;10.362;2023-04-03T04:15:00;6.90;;;2.30;;
18693;SDS011;9477;51.414;10.362;2023-04-03T04:17:05;7.07;;;2.50;;
18693;SDS011;9477;51.414;10.362;2023-04-03T04:19:08;5.57;;;2.23;;
18693;SDS011;9477;51.414;10.362;2023-04-03T04:21:11;9.97;;;2.80;;
18693;SDS011;9477;51.414;10.362;2023-04-03T04:23:14;6.93;;;1.90;;
18693;SDS011;9477;51.414;10.362;2023-04-03T04:25:17;5.90;;;2.20;;
18693;SDS011;9477;51.414;10.362;2023-04-03T04:27:20;8.40;;;2.20;;
18693;SDS011;9477;51.414;10.362;2023-04-03T04:29:23;3.83;;;2.13;;
18693;SDS011;9477;51.414;10.362;2023-04-03T04:31:27;7.47;;;2.30;;
18693;SDS011;9477;51.414;10.362;2023-04-03T04:33:31;5.07;;;2.40;;
18693;SDS011;9477;51.414;10.362;2023-04-03T04:35:34;8.13;;;2.50;;
18693;SDS011;9477;51.414;10.362;2023-04-03T04:37:38;9.23;;;2.53;;
18693;SDS011;9477;51.414;10.362;2023-04-03T04:39:41;5.50;;;2.27;;
18693;SDS011;9477;51.414;10.362;2023-04-03T04:41:43;6.30;;;2.63;;
18693;SDS011;9477;51.414;10.362;2023-04-03T04:43:46;9.33;;;2.63;;
18693;SDS011;9477;51.414;10.362;2023-04-03T04:45:59;8.53;;;3.30;;
18693;SDS011;9477;51.414;10.362;2023-04-03T04:48:03;6.73;;;2.80;;
18693;SDS011;9477;51.414;10.362;2023-04-03T04:50:08;10.63;;;2.70;;
18693;SDS011;9477;51.414;10.362;2023-04-03T04:52:12;8.90;;;2.80;;
18693;SDS011;9477;51.414;10.362;2023-04-03T04:54:15;6.67;;;2.63;;
18693;SDS011;9477;51.414;10.362;2023-04-03T04:56:18;7.73;;;2.67;;
18693;SDS011;9477;51.414;10.362;2023-04-03T04:58:22;7.10;;;2.67;;
18693;SDS011;9477;51.414;10.362;2023-04-03T05:00:25;6.83;;;2.50;;
18693;SDS011;9477;51.414;10.362;2023-04-03T05:02:27;8.57;;;2.83;;
18693;SDS011;9477;51.414;10.362;2023-04-03T05:04:30;6.73;;;2.50;;
18693;SDS011;9477;51.414;10.362;2023-04-03T05:06:35;5.57;;;2.60;;
18693;SDS011;9477;51.414;10.362;2023-04-03T05:08:38;6.90;;;2.70;;
18693;SDS011;9477;51.414;10.362;2023-04-03T05:10:41;10.40;;;2.60;;
18693;SDS011;9477;51.414;10.362;2023-04-03T05:12:44;4.90;;;2.43;;
18693;SDS011;9477;51.414;10.362;2023-04-03T05:14:47;5.30;;;2.50;;
18693;SDS011;9477;51.414;10.362;2023-04-03T05:16:50;6.70;;;2.70;;
18693;SDS011;9477;51.414;10.362;2023-04-03T05:18:54;7.23;;;2.57;;
18693;SDS011;9477;51.414;10.362;2023-04-03T05:20:57;6.90;;;2.40;;
18693;SDS011;9477;51.414;10.362;2023-04-03T05:23:02;5.07;;;2.40;;
18693;SDS011;9477;51.414;10.362;2023-04-03T05:25:05;8.60;;;2.80;;
18693;SDS011;9477;51.414;10.362;2023-04-03T05:27:08;11.33;;;2.73;;
18693;SDS011;9477;51.414;10.362;2023-04-03T05:29:12;8.40;;;2.53;;
18693;SDS011;9477;51.414;10.362;2023-04-03T05:31:14;7.53;;;2.80;;
18693;SDS011;9477;51.414;10.362;2023-04-03T05:33:17;8.60;;;2.80;;
18693;SDS011;9477;51.414;10.362;2023-04-03T05:35:20;7.87;;;2.47;;
18693;SDS011;9477;51.414;10.362;2023-04-03T05:37:23;4.47;;;2.60;;
18693;SDS011;9477;51.414;10.362;2023-04-03T05:39:28;12.13;;;2.60;;
18693;SDS011;9477;51.414;10.362;2023-04-03T05:41:32;6.27;;;3.00;;
18693;SDS011;9477;51.414;10.362;2023-04-03T05:43:35;5.10;;;2.60;;
18693;SDS011;9477;51.414;10.362;2023-04-03T05:45:39;11.13;;;3.10;;
18693;SDS011;9477;51.414;10.362;2023-04-03T05:47:45;9.87;;;2.93;;
18693;SDS011;9477;51.414;10.362;2023-04-03T05:49:48;9.10;;;2.37;;
18693;SDS011;9477;51.414;10.362;2023-04-03T05:51:51;6.07;;;2.53;;
18693;SDS011;9477;51.414;10.362;2023-04-03T05:53:55;7.03;;;3.70;;
18693;SDS011;9477;51.414;10.362;2023-04-03T05:56:04;6.77;;;2.53;;
18693;SDS011;9477;51.414;10.362;2023-04-03T05:58:07;6.13;;;2.60;;
18693;SDS011;9477;51.414;10.362;2023-04-03T06:00:12;6.87;;;1.97;;
18693;SDS011;9477;51.414;10.362;2023-04-03T06:02:18;6.37;;;2.63;;
18693;SDS011;9477;51.414;10.362;2023-04-03T06:04:22;9.77;;;2.60;;
18693;SDS011;9477;51.414;10.362;2023-04-03T06:06:26;8.30;;;2.67;;
18693;SDS011;9477;51.414;10.362;2023-04-03T06:08:44;7.63;;;2.50;;
18693;SDS011;9477;51.414;10.362;2023-04-03T06:10:47;7.00;;;2.30;;
18693;SDS011;9477;51.414;10.362;2023-04-03T06:12:51;5.00;;;2.40;;
18693;SDS011;9477;51.414;10.362;2023-04-03T06:14:54;7.40;;;2.23;;
18693;SDS011;9477;51.414;10.362;2023-04-03T06:16:57;3.80;;;1.90;;
18693;SDS011;9477;51.414;10.362;2023-04-03T06:19:00;7.53;;;2.50;;
18693;SDS011;9477;51.414;10.362;2023-04-03T06:21:03;6.97;;;2.10;;
18693;SDS011;9477;51.414;10.362;2023-04-03T06:23:08;7.23;;;2.53;;
18693;SDS011;9477;51.414;10.362;2023-04-03T06:25:11;6.50;;;2.23;;
18693;SDS011;9477;51.414;10.362;2023-04-03T06:27:14;6.93;;;2.17;;
18693;SDS011;9477;51.414;10.362;2023-04-03T06:29:19;6.63;;;2.10;;
18693;SDS011;9477;51.414;10.362;2023-04-03T06:31:23;5.03;;;2.20;;
18693;SDS011;9477;51.414;10.362;2023-04-03T06:33:26;7.53;;;1.90;;
18693;SDS011;9477;51.414;10.362;2023-04-03T06:35:28;7.37;;;2.30;;
18693;SDS011;9477;51.414;10.362;2023-04-03T06:37:32;6.90;;;2.30;;
18693;SDS011;9477;51.414;10.362;2023-04-03T06:39:35;5.30;;;2.43;;
18693;SDS011;9477;51.414;10.362;2023-04-03T06:41:38;7.33;;;2.23;;
18693;SDS011;9477;51.414;10.362;2023-04-03T06:43:41;5.50;;;2.17;;
18693;SDS011;9477;51.414;10.362;2023-04-03T06:45:45;6.67;;;2.20;;
18693;SDS011;9477;51.414;10.362;2023-04-03T06:47:48;5.87;;;2.30;;
18693;SDS011;9477;51.414;10.362;2023-04-03T06:49:51;3.37;;;1.73;;
18693;SDS011;9477;51.414;10.362;2023-04-03T06:51:54;5.40;;;2.07;;
18693;SDS011;9477;51.414;10.362;2023-04-03T06:53:58;3.40;;;1.90;;
18693;SDS011;9477;51.414;10.362;2023-04-03T06:56:02;8.67;;;2.33;;
18693;SDS011;9477;51.414;10.362;2023-04-03T06:58:05;4.37;;;1.90;;
18693;SDS011;9477;51.414;10.362;2023-04-03T07:00:08;3.93;;;1.80;;
18693;SDS011;9477;51.414;10.362;2023-04-03T07:02:14;9.37;;;2.00;;
18693;SDS011;9477;51.414;10.362;2023-04-03T07:04:17;3.73;;;2.00;;
18693;SDS011;9477;51.414;10.362;2023-04-03T07:06:21;4.83;;;2.00;;
18693;SDS011;9477;51.414;10.362;2023-04-03T07:08:28;5.30;;;1.73;;
18693;SDS011;9477;51.414;10.362;2023-04-03T07:10:31;4.17;;;2.00;;
18693;SDS011;9477;51.414;10.362;2023-04-03T07:12:34;4.23;;;1.90;;
18693;SDS011;9477;51.414;10.362;2023-04-03T07:14:37;8.73;;;2.00;;
18693;SDS011;9477;51.414;10.362;2023-04-03T07:16:40;9.07;;;1.67;;
18693;SDS011;9477;51.414;10.362;2023-04-03T07:18:44;4.87;;;1.67;;
18693;SDS011;9477;51.414;10.362;2023-04-03T07:20:48;5.63;;;1.77;;
18693;SDS011;9477;51.414;10.362;2023-04-03T07:22:51;5.43;;;1.93;;
18693;SDS011;9477;51.414;10.362;2023-04-03T07:24:53;6.93;;;1.70;;
18693;SDS011;9477;51.414;10.362;2023-04-03T07:26:56;5.53;;;1.63;;
18693;SDS011;9477;51.414;10.362;2023-04-03T07:28:59;5.83;;;1.93;;
18693;SDS011;9477;51.414;10.362;2023-04-03T07:31:03;5.70;;;1.90;;
18693;SDS011;9477;51.414;10.362;2023-04-03T07:33:09;3.20;;;1.50;;
18693;SDS011;9477;51.414;10.362;2023-04-03T07:35:14;4.20;;;1.40;;
18693;SDS011;9477;51.414;10.362;2023-04-03T07:37:17;2.67;;;1.27;;
18693;SDS011;9477;51.414;10.362;2023-04-03T07:39:20;3.37;;;1.63;;
18693;SDS011;9477;51.414;10.362;2023-04-03T07:41:23;8.73;;;1.93;;
18693;SDS011;9477;51.414;10.362;2023-04-03T07:43:26;6.30;;;1.50;;
18693;SDS011;9477;51.414;10.362;2023-04-03T07:45:29;3.93;;;1.60;;
18693;SDS011;9477;51.414;10.362;2023-04-03T07:47:32;4.40;;;1.47;;
18693;SDS011;9477;51.414;10.362;2023-04-03T07:49:35;4.23;;;1.50;;
18693;SDS011;9477;51.414;10.362;2023-04-03T07:51:42;3.93;;;1.50;;
18693;SDS011;9477;51.414;10.362;2023-04-03T07:53:44;4.97;;;1.80;;
18693;SDS011;9477;51.414;10.362;2023-04-03T07:55:48;6.77;;;1.77;;
18693;SDS011;9477;51.414;10.362;2023-04-03T07:57:56;5.07;;;1.40;;
18693;SDS011;9477;51.414;10.362;2023-04-03T07:59:59;3.07;;;1.37;;
18693;SDS011;9477;51.414;10.362;2023-04-03T08:02:02;4.03;;;1.97;;
18693;SDS011;9477;51.414;10.362;2023-04-03T08:04:06;6.40;;;2.00;;
18693;SDS011;9477;51.414;10.362;2023-04-03T08:06:09;5.20;;;2.00;;
18693;SDS011;9477;51.414;10.362;2023-04-03T08:08:19;3.57;;;1.63;;
18693;SDS011;9477;51.414;10.362;2023-04-03T08:10:23;4.10;;;1.40;;
18693;SDS011;9477;51.414;10.362;2023-04-03T08:12:26;3.93;;;1.20;;
18693;SDS011;9477;51.414;10.362;2023-04-03T08:14:30;4.50;;;1.30;;
18693;SDS011;9477;51.414;10.362;2023-04-03T08:16:35;4.47;;;1.40;;
18693;SDS011;9477;51.414;10.362;2023-04-03T08:18:38;3.63;;;1.30;;
18693;SDS011;9477;51.414;10.362;2023-04-03T08:20:41;3.50;;;1.40;;
18693;SDS011;9477;51.414;10.362;2023-04-03T08:22:45;4.60;;;1.37;;
18693;SDS011;9477;51.414;10.362;2023-04-03T08:24:50;3.30;;;1.20;;
18693;SDS011;9477;51.414;10.362;2023-04-03T08:26:59;4.07;;;1.20;;
18693;SDS011;9477;51.414;10.362;2023-04-03T08:29:02;3.33;;;1.40;;
18693;SDS011;9477;51.414;10.362;2023-04-03T08:31:06;3.43;;;1.27;;
18693;SDS011;9477;51.414;10.362;2023-04-03T08:33:12;4.07;;;1.30;;
18693;SDS011;9477;51.414;10.362;2023-04-03T08:35:15;3.63;;;1.70;;
18693;SDS011;9477;51.414;10.362;2023-04-03T08:37:19;6.20;;;1.90;;
18693;SDS011;9477;51.414;10.362;2023-04-03T08:39:21;4.43;;;1.37;;
18693;SDS011;9477;51.414;10.362;2023-04-03T08:41:32;4.47;;;1.03;;
18693;SDS011;9477;51.414;10.362;2023-04-03T08:43:38;4.20;;;1.33;;
18693;SDS011;9477;51.414;10.362;2023-04-03T08:45:51;5.10;;;1.23;;
18693;SDS011;9477;51.414;10.362;2023-04-03T08:47:58;2.47;;;1.00;;
18693;SDS011;9477;51.414;10.362;2023-04-03T08:50:07;4.20;;;1.00;;
18693;SDS011;9477;51.414;10.362;2023-04-03T08:52:15;4.83;;;1.37;;
18693;SDS011;9477;51.414;10.362;2023-04-03T08:54:23;2.07;;;1.13;;
18693;SDS011;9477;51.414;10.362;2023-04-03T08:56:31;4.87;;;1.10;;
18693;SDS011;9477;51.414;10.362;2023-04-03T08:58:39;6.27;;;1.43;;
18693;SDS011;9477;51.414;10.362;2023-04-03T09:00:47;3.27;;;1.33;;
18693;SDS011;9477;51.414;10.362;2023-04-03T09:02:53;4.27;;;1.23;;
18693;SDS011;9477;51.414;10.362;2023-04-03T09:04:58;3.70;;;1.10;;
18693;SDS011;9477;51.414;10.362;2023-04-03T09:07:02;2.13;;;1.10;;
18693;SDS011;9477;51.414;10.362;2023-04-03T09:09:12;2.50;;;1.00;;
18693;SDS011;9477;51.414;10.362;2023-04-03T09:11:19;4.93;;;1.00;;
18693;SDS011;9477;51.414;10.362;2023-04-03T09:13:30;2.70;;;1.20;;
18693;SDS011;9477;51.414;10.362;2023-04-03T09:15:39;3.57;;;1.10;;
18693;SDS011;9477;51.414;10.362;2023-04-03T09:17:46;3.93;;;1.30;;
18693;SDS011;9477;51.414;10.362;2023-04-03T09:19:58;3.67;;;1.10;;
18693;SDS011;9477;51.414;10.362;2023-04-03T09:22:13;2.53;;;1.10;;
18693;SDS011;9477;51.414;10.362;2023-04-03T09:24:20;2.73;;;1.13;;
18693;SDS011;9477;51.414;10.362;2023-04-03T09:26:26;4.27;;;1.20;;
18693;SDS011;9477;51.414;10.362;2023-04-03T09:28:36;3.60;;;1.20;;
18693;SDS011;9477;51.414;10.362;2023-04-03T09:30:50;3.80;;;1.50;;
18693;SDS011;9477;51.414;10.362;2023-04-03T09:32:53;6.17;;;1.23;;
18693;SDS011;9477;51.414;10.362;2023-04-03T09:34:59;4.27;;;1.20;;
18693;SDS011;9477;51.414;10.362;2023-04-03T09:37:35;3.83;;;1.13;;
18693;SDS011;9477;51.414;10.362;2023-04-03T09:39:48;5.33;;;1.50;;
18693;SDS011;9477;51.414;10.362;2023-04-03T09:41:57;2.53;;;1.20;;
18693;SDS011;9477;51.414;10.362;2023-04-03T09:44:04;3.10;;;1.03;;
18693;SDS011;9477;51.414;10.362;2023-04-03T09:46:25;3.43;;;1.20;;
18693;SDS011;9477;51.414;10.362;2023-04-03T09:48:32;3.93;;;1.20;;
18693;SDS011;9477;51.414;10.362;2023-04-03T09:50:35;4.83;;;1.13;;
18693;SDS011;9477;51.414;10.362;2023-04-03T09:52:40;2.33;;;1.23;;
18693;SDS011;9477;51.414;10.362;2023-04-03T09:54:44;3.20;;;1.00;;
18693;SDS011;9477;51.414;10.362;2023-04-03T09:56:49;2.67;;;1.27;;
18693;SDS011;9477;51.414;10.362;2023-04-03T09:59:06;3.80;;;1.07;;
18693;SDS011;9477;51.414;10.362;2023-04-03T10:01:22;2.00;;;1.17;;
18693;SDS011;9477;51.414;10.362;2023-04-03T10:03:29;2.57;;;1.20;;
18693;SDS011;9477;51.414;10.362;2023-04-03T10:05:35;7.80;;;1.30;;
18693;SDS011;9477;51.414;10.362;2023-04-03T10:07:42;3.37;;;1.27;;
18693;SDS011;9477;51.414;10.362;2023-04-03T10:09:58;2.83;;;1.40;;
18693;SDS011;9477;51.414;10.362;2023-04-03T10:12:03;3.77;;;1.20;;
18693;SDS011;9477;51.414;10.362;2023-04-03T10:14:10;3.73;;;1.20;;
18693;SDS011;9477;51.414;10.362;2023-04-03T10:16:20;1.93;;;1.20;;
18693;SDS011;9477;51.414;10.362;2023-04-03T10:18:29;3.87;;;1.40;;
18693;SDS011;9477;51.414;10.362;2023-04-03T10:20:42;4.93;;;1.40;;
18693;SDS011;9477;51.414;10.362;2023-04-03T10:22:50;4.93;;;1.30;;
18693;SDS011;9477;51.414;10.362;2023-04-03T10:25:03;6.63;;;1.40;;
18693;SDS011;9477;51.414;10.362;2023-04-03T10:27:16;3.10;;;1.60;;
18693;SDS011;9477;51.414;10.362;2023-04-03T10:29:34;2.93;;;1.20;;
18693;SDS011;9477;51.414;10.362;2023-04-03T10:31:43;3.80;;;1.40;;
18693;SDS011;9477;51.414;10.362;2023-04-03T10:33:56;3.57;;;1.30;;
18693;SDS011;9477;51.414;10.362;2023-04-03T10:36:10;4.77;;;1.10;;
18693;SDS011;9477;51.414;10.362;2023-04-03T10:38:23;2.17;;;1.20;;
18693;SDS011;9477;51.414;10.362;2023-04-03T10:40:34;4.17;;;1.50;;
18693;SDS011;9477;51.414;10.362;2023-04-03T10:42:46;4.63;;;1.37;;
18693;SDS011;9477;51.414;10.362;2023-04-03T10:45:06;6.77;;;1.30;;
18693;SDS011;9477;51.414;10.362;2023-04-03T10:47:20;4.07;;;1.40;;
18693;SDS011;9477;51.414;10.362;2023-04-03T10:49:31;3.87;;;1.33;;
18693;SDS011;9477;51.414;10.362;2023-04-03T10:51:58;3.20;;;1.40;;
18693;SDS011;9477;51.414;10.362;2023-04-03T10:54:08;4.47;;;1.47;;
18693;SDS011;9477;51.414;10.362;2023-04-03T10:56:15;4.27;;;1.43;;
18693;SDS011;9477;51.414;10.362;2023-04-03T10:58:24;2.37;;;1.30;;
18693;SDS011;9477;51.414;10.362;2023-04-03T11:00:36;4.63;;;1.57;;
18693;SDS011;9477;51.414;10.362;2023-04-03T11:02:44;1.90;;;1.10;;
18693;SDS011;9477;51.414;10.362;2023-04-03T11:04:53;5.00;;;1.67;;
18693;SDS011;9477;51.414;10.362;2023-04-03T11:07:01;3.90;;;1.53;;
18693;SDS011;9477;51.414;10.362;2023-04-03T11:09:11;2.50;;;1.40;;
18693;SDS011;9477;51.414;10.362;2023-04-03T11:11:22;4.23;;;1.53;;
18693;SDS011;9477;51.414;10.362;2023-04-03T11:13:30;3.03;;;1.43;;
18693;SDS011;9477;51.414;10.362;2023-04-03T11:15:39;3.80;;;1.47;;
18693;SDS011;9477;51.414;10.362;2023-04-03T11:17:43;3.53;;;1.30;;
18693;SDS011;9477;51.414;10.362;2023-04-03T11:19:52;6.03;;;1.37;;
18693;SDS011;9477;51.414;10.362;2023-04-03T11:22:05;2.23;;;1.13;;
18693;SDS011;9477;51.414;10.362;2023-04-03T11:24:15;5.70;;;1.50;;
18693;SDS011;9477;51.414;10.362;2023-04-03T11:26:23;3.47;;;1.27;;
18693;SDS011;9477;51.414;10.362;2023-04-03T11:28:32;2.03;;;1.27;;
18693;SDS011;9477;51.414;10.362;2023-04-03T11:30:37;5.40;;;1.30;;
18693;SDS011;9477;51.414;10.362;2023-04-03T11:35:19;5.03;;;1.47;;
18693;SDS011;9477;51.414;10.362;2023-04-03T11:37:25;3.77;;;1.20;;
18693;SDS011;9477;51.414;10.362;2023-04-03T11:39:32;3.90;;;1.33;;
18693;SDS011;9477;51.414;10.362;2023-04-03T11:41:39;3.43;;;1.40;;
18693;SDS011;9477;51.414;10.362;2023-04-03T11:43:42;2.70;;;1.40;;
18693;SDS011;9477;51.414;10.362;2023-04-03T11:46:00;4.13;;;1.23;;
18693;SDS011;9477;51.414;10.362;2023-04-03T11:48:05;3.73;;;1.30;;
18693;SDS011;9477;51.414;10.362;2023-04-03T11:50:42;4.63;;;1.23;;
18693;SDS011;9477;51.414;10.362;2023-04-03T11:52:56;2.93;;;1.40;;
18693;SDS011;9477;51.414;10.362;2023-04-03T11:55:00;3.37;;;1.40;;
18693;SDS011;9477;51.414;10.362;2023-04-03T11:59:40;2.07;;;1.10;;
18693;SDS011;9477;51.414;10.362;2023-04-03T12:01:45;3.27;;;1.50;;
18693;SDS011;9477;51.414;10.362;2023-04-03T12:08:57;4.70;;;2.33;;
18693;SDS011;9477;51.414;10.362;2023-04-03T12:11:13;4.10;;;1.60;;
18693;SDS011;9477;51.414;10.362;2023-04-03T12:13:18;5.00;;;1.53;;
18693;SDS011;9477;51.414;10.362;2023-04-03T12:15:26;2.53;;;1.10;;
18693;SDS011;9477;51.414;10.362;2023-04-03T12:17:51;10.93;;;5.83;;
18693;SDS011;9477;51.414;10.362;2023-04-03T12:19:54;9.97;;;4.10;;
18693;SDS011;9477;51.414;10.362;2023-04-03T12:22:05;3.87;;;1.40;;
18693;SDS011;9477;51.414;10.362;2023-04-03T12:24:23;4.50;;;1.40;;
18693;SDS011;9477;51.414;10.362;2023-04-03T12:26:28;3.87;;;1.63;;
18693;SDS011;9477;51.414;10.362;2023-04-03T12:28:49;2.10;;;1.30;;
18693;SDS011;9477;51.414;10.362;2023-04-03T12:30:55;5.00;;;1.30;;
18693;SDS011;9477;51.414;10.362;2023-04-03T12:33:04;4.27;;;1.43;;
18693;SDS011;9477;51.414;10.362;2023-04-03T12:35:30;3.10;;;1.27;;
18693;SDS011;9477;51.414;10.362;2023-04-03T12:37:40;3.97;;;1.40;;
18693;SDS011;9477;51.414;10.362;2023-04-03T12:39:55;2.87;;;1.37;;
18693;SDS011;9477;51.414;10.362;2023-04-03T12:42:12;3.23;;;1.37;;
18693;SDS011;9477;51.414;10.362;2023-04-03T12:44:35;4.93;;;1.33;;
18693;SDS011;9477;51.414;10.362;2023-04-03T12:46:45;2.57;;;1.10;;
18693;SDS011;9477;51.414;10.362;2023-04-03T12:48:52;6.50;;;1.70;;
18693;SDS011;9477;51.414;10.362;2023-04-03T12:50:56;5.27;;;1.27;;